Terminal Aerodrome Forecast
Issued by NWS Albuquerque, NM

Home | Current Version | Previous Version | Text Only | Print | Product List | Glossary On
Versions: 1 2 3 4 5 6 7 8 9 10 11 12 13 14 15 16
000
FTUS45 KABQ 290531
TAFABQ
TAF
KABQ 290531Z 2906/3006 09011KT P6SM BKN100
      TEMPO 2906/2908 09016G26KT
     FM290800 08009KT P6SM BKN100
     FM291900 12011KT P6SM SCT090
     FM292200 13011KT P6SM VCSH BKN090
     FM300200 11008KT P6SM SCT090=

USA.gov is the U.S. government's official web portal to all federal, state and local government web resources and services.